createdAt,value
2022-10-11T00:00:06.309Z,4.75
2022-10-11T00:02:33.051Z,4.05
2022-10-11T00:04:59.793Z,5.00
2022-10-11T00:07:26.851Z,4.18
2022-10-11T00:09:53.652Z,5.20
2022-10-11T00:12:20.428Z,4.18
2022-10-11T00:14:47.235Z,4.55
2022-10-11T00:17:14.694Z,4.72
2022-10-11T00:19:41.524Z,4.18
2022-10-11T00:22:08.308Z,7.43
2022-10-11T00:24:35.491Z,11.23
2022-10-11T00:27:02.265Z,11.38
2022-10-11T00:29:29.035Z,8.75
2022-10-11T00:31:56.091Z,5.35
2022-10-11T00:34:22.904Z,4.70
2022-10-11T00:36:49.760Z,5.05
2022-10-11T00:39:16.629Z,3.92
2022-10-11T00:41:43.400Z,5.20
2022-10-11T00:44:24.760Z,4.72
2022-10-11T00:46:57.899Z,5.13
2022-10-11T00:49:55.299Z,4.80
2022-10-11T00:52:40.452Z,5.38
2022-10-11T00:55:12.590Z,4.95
2022-10-11T00:57:43.871Z,5.18
2022-10-11T01:00:13.673Z,4.45
2022-10-11T01:02:41.931Z,5.43
2022-10-11T01:05:28.620Z,4.78
2022-10-11T01:07:56.444Z,4.93
2022-10-11T01:10:23.463Z,5.32
2022-10-11T01:13:13.592Z,5.20
2022-10-11T01:16:00.545Z,5.30
2022-10-11T01:18:32.767Z,6.15
2022-10-11T01:21:42.491Z,5.10
2022-10-11T01:24:30.247Z,5.72
2022-10-11T01:27:26.081Z,5.93
2022-10-11T01:29:55.703Z,6.60
2022-10-11T01:32:33.900Z,6.15
2022-10-11T01:35:22.299Z,7.28
2022-10-11T01:38:13.436Z,6.45
2022-10-11T01:40:48.900Z,6.38
2022-10-11T01:43:16.706Z,5.65
2022-10-11T01:45:44.558Z,5.65
2022-10-11T01:48:13.570Z,6.93
2022-10-11T01:50:43.363Z,7.57
2022-10-11T01:53:18.290Z,7.68
2022-10-11T01:55:53.933Z,8.05
2022-10-11T01:58:37.144Z,8.25
2022-10-11T02:01:26.128Z,6.65
2022-10-11T02:04:09.349Z,5.75
2022-10-11T02:06:49.018Z,8.20
2022-10-11T02:09:41.658Z,8.07
2022-10-11T02:12:12.794Z,7.80
2022-10-11T02:14:43.709Z,8.35
2022-10-11T02:17:21.672Z,8.23
2022-10-11T02:19:52.568Z,8.98
2022-10-11T02:22:26.732Z,9.35
2022-10-11T02:24:56.551Z,8.93
2022-10-11T02:27:27.569Z,8.27
2022-10-11T02:29:57.259Z,9.02
2022-10-11T02:32:25.745Z,7.88
2022-10-11T02:34:58.685Z,8.23
2022-10-11T02:38:01.740Z,8.13
2022-10-11T02:40:35.111Z,8.25
2022-10-11T02:43:17.990Z,7.88
2022-10-11T02:45:49.790Z,7.22
2022-10-11T02:48:17.886Z,7.30
2022-10-11T02:50:44.804Z,6.65
2022-10-11T02:53:11.625Z,7.68
2022-10-11T02:55:38.509Z,7.30
2022-10-11T02:58:05.285Z,7.03
2022-10-11T03:00:32.112Z,6.20
2022-10-11T03:03:01.873Z,6.72
2022-10-11T03:05:28.886Z,7.28
2022-10-11T03:07:55.810Z,7.65
2022-10-11T03:10:22.568Z,7.28
2022-10-11T03:12:49.339Z,7.32
2022-10-11T03:15:22.196Z,9.02
2022-10-11T03:17:49.340Z,7.53
2022-10-11T03:20:16.188Z,8.35
2022-10-11T03:22:43.149Z,10.07
2022-10-11T03:25:10.026Z,8.32
2022-10-11T03:27:36.817Z,8.90
2022-10-11T03:30:07.218Z,9.07
2022-10-11T03:32:34.550Z,7.93
2022-10-11T03:35:04.090Z,9.07
2022-10-11T03:37:30.930Z,9.98
2022-10-11T03:39:57.715Z,9.68
2022-10-11T03:42:24.610Z,9.85
2022-10-11T03:44:55.033Z,10.25
2022-10-11T03:47:21.773Z,9.63
2022-10-11T03:49:48.524Z,7.57
2022-10-11T03:52:15.348Z,9.60
2022-10-11T03:54:42.123Z,9.48
2022-10-11T03:57:08.908Z,7.70
2022-10-11T03:59:35.870Z,7.38
2022-10-11T04:02:02.748Z,7.65
2022-10-11T04:04:29.636Z,7.10
2022-10-11T04:06:56.400Z,7.80
2022-10-11T04:09:23.253Z,7.53
2022-10-11T04:11:50.043Z,9.32
2022-10-11T04:14:17.160Z,9.05
2022-10-11T04:16:43.975Z,9.82
2022-10-11T04:19:10.808Z,9.27
2022-10-11T04:21:37.595Z,9.32
2022-10-11T04:24:04.692Z,10.30
2022-10-11T04:26:31.630Z,9.68
2022-10-11T04:28:58.520Z,11.20
2022-10-11T04:31:25.409Z,12.20
2022-10-11T04:33:52.208Z,10.18
2022-10-11T04:36:18.984Z,11.60
2022-10-11T04:38:45.776Z,11.95
2022-10-11T04:41:14.482Z,10.43
2022-10-11T04:43:41.748Z,10.73
2022-10-11T04:46:09.770Z,11.38
2022-10-11T04:48:37.116Z,11.35
2022-10-11T04:51:04.134Z,11.10
2022-10-11T04:53:31.006Z,10.98
2022-10-11T04:56:04.352Z,12.13
2022-10-11T04:58:33.143Z,11.05
2022-10-11T05:01:00.294Z,11.60
2022-10-11T05:03:28.926Z,12.35
2022-10-11T05:05:55.781Z,11.02
2022-10-11T05:08:25.541Z,11.73
2022-10-11T05:11:06.773Z,12.25
2022-10-11T05:13:34.985Z,12.40
2022-10-11T05:16:04.013Z,11.70
2022-10-11T05:18:34.189Z,11.32
2022-10-11T05:21:21.139Z,12.43
2022-10-11T05:23:49.865Z,11.68
2022-10-11T05:26:18.145Z,11.80
2022-10-11T05:28:45.699Z,10.70
2022-10-11T05:31:13.171Z,10.77
2022-10-11T05:33:40.234Z,11.45
2022-10-11T05:36:08.230Z,11.98
2022-10-11T05:38:36.147Z,11.00
2022-10-11T05:41:04.254Z,11.13
2022-10-11T05:43:31.555Z,11.15
2022-10-11T05:45:58.610Z,10.75
2022-10-11T05:48:26.772Z,10.35
2022-10-11T05:50:58.330Z,10.98
2022-10-11T05:53:25.193Z,10.43
2022-10-11T05:55:52.055Z,12.07
2022-10-11T05:58:19.463Z,9.98
2022-10-11T06:00:46.258Z,11.15
2022-10-11T06:03:13.794Z,10.38
2022-10-11T06:05:40.928Z,10.05
2022-10-11T06:08:08.762Z,9.10
2022-10-11T06:10:36.840Z,9.68
2022-10-11T06:13:03.721Z,9.40
2022-10-11T06:15:31.398Z,8.48
2022-10-11T06:17:59.271Z,7.63
2022-10-11T06:20:27.106Z,8.18
2022-10-11T06:22:54.288Z,6.53
2022-10-11T06:25:21.194Z,6.90
2022-10-11T06:27:47.940Z,6.60
2022-10-11T06:30:15.137Z,7.03
2022-10-11T06:32:41.953Z,7.15
2022-10-11T06:35:09.326Z,7.20
2022-10-11T06:37:36.188Z,6.45
2022-10-11T06:40:03.730Z,6.88
2022-10-11T06:42:30.601Z,6.05
2022-10-11T06:44:57.373Z,6.68
2022-10-11T06:47:24.147Z,6.68
2022-10-11T06:49:51.016Z,6.35
2022-10-11T06:52:17.830Z,6.35
2022-10-11T06:54:45.610Z,6.97
2022-10-11T06:57:12.632Z,6.57
2022-10-11T06:59:39.610Z,6.72
2022-10-11T07:02:06.856Z,6.25
2022-10-11T07:04:34.010Z,7.60
2022-10-11T07:07:01.182Z,8.27
2022-10-11T07:09:28.077Z,8.30
2022-10-11T07:11:54.886Z,10.57
2022-10-11T07:14:21.726Z,11.35
2022-10-11T07:16:48.554Z,10.55
2022-10-11T07:19:15.529Z,12.55
2022-10-11T07:21:42.390Z,12.35
2022-10-11T07:24:09.234Z,13.63
2022-10-11T07:26:38.175Z,12.90
2022-10-11T07:29:07.413Z,12.77
2022-10-11T07:31:34.466Z,12.10
2022-10-11T07:34:01.324Z,13.05
2022-10-11T07:36:28.172Z,14.02
2022-10-11T07:38:55.086Z,13.95
2022-10-11T07:41:21.975Z,13.52
2022-10-11T07:43:49.793Z,15.25
2022-10-11T07:46:19.666Z,14.13
2022-10-11T07:48:46.604Z,16.02
2022-10-11T07:51:17.785Z,16.17
2022-10-11T07:53:56.390Z,14.57
2022-10-11T07:56:26.604Z,15.25
2022-10-11T07:58:59.356Z,14.75
2022-10-11T08:01:27.698Z,14.95
2022-10-11T08:03:56.942Z,15.25
2022-10-11T08:06:27.323Z,15.55
2022-10-11T08:08:54.103Z,15.15
2022-10-11T08:11:30.003Z,15.70
2022-10-11T08:13:58.503Z,17.83
2022-10-11T08:16:25.767Z,18.60
2022-10-11T08:18:54.536Z,17.35
2022-10-11T08:21:21.586Z,18.48
2022-10-11T08:23:48.494Z,17.38
2022-10-11T08:26:15.894Z,16.88
2022-10-11T08:28:42.993Z,16.52
2022-10-11T08:31:15.802Z,18.63
2022-10-11T08:33:43.150Z,18.23
2022-10-11T08:36:11.123Z,18.77
2022-10-11T08:38:38.975Z,19.67
2022-10-11T08:41:26.921Z,19.27
2022-10-11T08:44:12.743Z,19.65
2022-10-11T08:46:42.238Z,20.13
2022-10-11T08:49:13.348Z,18.23
2022-10-11T08:51:47.480Z,18.75
2022-10-11T08:54:49.524Z,19.42
2022-10-11T08:57:27.888Z,20.20
2022-10-11T08:59:58.911Z,20.77
2022-10-11T09:02:55.804Z,20.58
2022-10-11T09:05:25.448Z,21.98
2022-10-11T09:07:57.924Z,20.52
2022-10-11T09:10:51.453Z,20.08
2022-10-11T09:13:35.730Z,20.27
2022-10-11T09:16:11.430Z,21.60
2022-10-11T09:19:01.035Z,20.83
2022-10-11T09:21:51.763Z,20.20
2022-10-11T09:24:39.213Z,18.38
2022-10-11T09:27:50.408Z,21.60
2022-10-11T09:30:19.681Z,19.88
2022-10-11T09:33:08.130Z,21.77
2022-10-11T09:35:44.464Z,20.58
2022-10-11T09:38:33.474Z,20.35
2022-10-11T09:41:03.306Z,21.88
2022-10-11T09:43:30.799Z,22.63
2022-10-11T09:45:57.883Z,20.10
2022-10-11T09:48:30.609Z,21.58
2022-10-11T09:51:05.059Z,21.15
2022-10-11T09:53:56.470Z,21.20
2022-10-11T09:56:25.996Z,21.45
2022-10-11T09:59:26.406Z,19.95
2022-10-11T10:02:23.119Z,20.38
2022-10-11T10:04:56.028Z,21.67
2022-10-11T10:07:23.900Z,22.40
2022-10-11T10:09:51.068Z,22.58
2022-10-11T10:12:25.950Z,22.60
2022-10-11T10:15:05.138Z,24.13
2022-10-11T10:17:32.612Z,22.70
2022-10-11T10:20:00.681Z,24.63
2022-10-11T10:22:33.469Z,24.15
2022-10-11T10:25:06.332Z,23.95
2022-10-11T10:27:33.399Z,25.30
2022-10-11T10:30:09.167Z,23.98
2022-10-11T10:32:50.710Z,23.30
2022-10-11T10:35:38.087Z,24.42
2022-10-11T10:38:33.112Z,25.63
2022-10-11T10:41:11.735Z,26.65
2022-10-11T10:43:40.851Z,24.65
2022-10-11T10:46:28.162Z,24.80
2022-10-11T10:49:51.947Z,24.05
2022-10-11T10:52:53.007Z,25.35
2022-10-11T10:55:41.819Z,25.42
2022-10-11T10:58:27.140Z,26.17
2022-10-11T11:01:04.174Z,24.42
2022-10-11T11:04:06.032Z,24.77
2022-10-11T11:06:46.603Z,23.95
2022-10-11T11:09:37.012Z,21.75
2022-10-11T11:12:25.453Z,20.20
2022-10-11T11:15:01.623Z,20.77
2022-10-11T11:17:49.539Z,20.88
2022-10-11T11:20:19.324Z,20.10
2022-10-11T11:23:11.754Z,18.08
2022-10-11T11:26:03.584Z,17.65
2022-10-11T11:28:55.508Z,16.55
2022-10-11T11:31:31.405Z,15.50
2022-10-11T11:34:16.454Z,14.32
2022-10-11T11:36:55.646Z,15.98
2022-10-11T11:39:46.701Z,15.05
2022-10-11T11:42:34.225Z,13.55
2022-10-11T11:45:12.271Z,13.77
2022-10-11T11:47:43.380Z,13.27
2022-10-11T11:50:15.227Z,14.90
2022-10-11T11:52:46.880Z,14.07
2022-10-11T11:55:43.407Z,14.73
2022-10-11T11:58:21.793Z,14.10
2022-10-11T12:01:15.640Z,13.52
2022-10-11T12:03:47.406Z,14.63
2022-10-11T12:06:14.519Z,13.50
2022-10-11T12:09:03.925Z,13.75
2022-10-11T12:11:50.973Z,12.93
2022-10-11T12:14:35.396Z,11.55
2022-10-11T12:17:10.175Z,12.45
2022-10-11T12:19:39.793Z,11.07
2022-10-11T12:22:28.472Z,11.73
2022-10-11T12:25:18.503Z,12.05
2022-10-11T12:27:47.390Z,11.10
2022-10-11T12:30:48.213Z,10.52
2022-10-11T12:33:25.374Z,10.82
2022-10-11T12:35:55.286Z,10.63
2022-10-11T12:38:24.810Z,9.27
2022-10-11T12:40:57.014Z,9.73
2022-10-11T12:43:33.291Z,10.18
2022-10-11T12:46:27.808Z,9.52
2022-10-11T12:49:22.646Z,9.93
2022-10-11T12:52:00.126Z,9.90
2022-10-11T12:54:54.308Z,8.77
2022-10-11T12:57:42.548Z,8.30
2022-10-11T13:00:26.280Z,7.43
2022-10-11T13:02:53.062Z,8.35
2022-10-11T13:05:30.243Z,8.63
2022-10-11T13:07:59.209Z,7.90
2022-10-11T13:10:42.534Z,8.65
2022-10-11T13:13:21.908Z,8.68
2022-10-11T13:15:49.545Z,9.57
2022-10-11T13:18:17.812Z,10.30
2022-10-11T13:20:45.054Z,10.60
2022-10-11T13:23:38.747Z,10.52
2022-10-11T13:26:05.835Z,10.80
2022-10-11T13:28:36.282Z,11.63
2022-10-11T13:31:04.388Z,10.60
2022-10-11T13:33:34.695Z,12.13
2022-10-11T13:36:04.222Z,11.68
2022-10-11T13:38:34.078Z,12.40
2022-10-11T13:41:05.951Z,12.77
2022-10-11T13:43:34.149Z,12.63
2022-10-11T13:46:04.979Z,13.07
2022-10-11T13:48:38.559Z,12.40
2022-10-11T13:51:33.907Z,13.18
2022-10-11T13:54:13.152Z,12.75
2022-10-11T13:56:46.048Z,12.43
2022-10-11T13:59:25.568Z,12.75
2022-10-11T14:01:59.094Z,13.02
2022-10-11T14:04:29.519Z,12.70
2022-10-11T14:07:02.726Z,12.43
2022-10-11T14:09:35.631Z,12.93
2022-10-11T14:12:29.346Z,12.23
2022-10-11T14:14:57.444Z,12.48
2022-10-11T14:17:38.646Z,12.10
2022-10-11T14:20:12.019Z,12.77
2022-10-11T14:22:39.454Z,13.27
2022-10-11T14:25:06.552Z,13.02
2022-10-11T14:27:33.596Z,13.25
2022-10-11T14:30:24.484Z,12.02
2022-10-11T14:32:50.688Z,12.95
2022-10-11T14:35:30.377Z,13.27
2022-10-11T14:37:57.635Z,13.70
2022-10-11T14:40:27.349Z,12.68
2022-10-11T14:42:54.904Z,12.25
2022-10-11T14:45:21.772Z,13.73
2022-10-11T14:47:49.309Z,12.88
2022-10-11T14:50:19.377Z,13.07
2022-10-11T14:52:46.845Z,13.10
2022-10-11T14:55:13.894Z,12.18
2022-10-11T14:57:40.678Z,12.23
2022-10-11T15:00:16.818Z,13.73
2022-10-11T15:02:43.679Z,13.38
2022-10-11T15:05:11.242Z,12.57
2022-10-11T15:07:38.046Z,14.57
2022-10-11T15:10:17.574Z,13.07
2022-10-11T15:12:44.508Z,14.32
2022-10-11T15:15:16.149Z,14.80
2022-10-11T15:17:43.681Z,16.17
2022-10-11T15:20:41.971Z,16.27
2022-10-11T15:23:09.919Z,17.52
2022-10-11T15:25:38.847Z,17.33
2022-10-11T15:28:07.142Z,16.52
2022-10-11T15:30:41.092Z,17.10
2022-10-11T15:33:08.379Z,16.25
2022-10-11T15:35:35.234Z,15.73
2022-10-11T15:38:02.511Z,17.50
2022-10-11T15:40:37.098Z,17.00
2022-10-11T15:43:04.299Z,16.75
2022-10-11T15:45:31.477Z,16.38
2022-10-11T15:47:58.532Z,17.42
2022-10-11T15:50:41.561Z,16.10
2022-10-11T15:53:14.194Z,17.05
2022-10-11T15:55:47.582Z,16.48
2022-10-11T15:58:17.050Z,18.08
2022-10-11T16:00:45.758Z,17.30
2022-10-11T16:03:13.722Z,17.45
2022-10-11T16:05:41.098Z,17.45
2022-10-11T16:08:08.328Z,16.65
2022-10-11T16:10:37.496Z,17.00
2022-10-11T16:13:05.000Z,18.23
2022-10-11T16:15:32.183Z,16.67
2022-10-11T16:17:59.097Z,17.52
2022-10-11T16:20:25.983Z,17.63
2022-10-11T16:22:54.398Z,16.40
2022-10-11T16:25:22.158Z,16.02
2022-10-11T16:27:49.373Z,17.27
2022-10-11T16:30:17.432Z,15.85
2022-10-11T16:32:44.907Z,15.95
2022-10-11T16:35:13.193Z,16.17
2022-10-11T16:37:39.964Z,16.63
2022-10-11T16:40:08.200Z,16.65
2022-10-11T16:42:35.662Z,17.73
2022-10-11T16:45:02.494Z,18.13
2022-10-11T16:47:29.267Z,20.83
2022-10-11T16:49:56.153Z,17.85
2022-10-11T16:52:22.950Z,20.52
2022-10-11T16:54:49.804Z,18.92
2022-10-11T16:57:18.425Z,17.95
2022-10-11T16:59:45.829Z,17.52
2022-10-11T17:02:17.068Z,17.77
2022-10-11T17:04:44.412Z,18.75
2022-10-11T17:07:14.715Z,19.13
2022-10-11T17:09:45.836Z,20.35
2022-10-11T17:12:14.155Z,18.13
2022-10-11T17:14:42.460Z,17.58
2022-10-11T17:17:10.945Z,18.02
2022-10-11T17:19:45.071Z,17.60
2022-10-11T17:22:14.515Z,18.48
2022-10-11T17:24:41.699Z,17.42
2022-10-11T17:27:08.771Z,17.88
2022-10-11T17:29:35.996Z,18.10
2022-10-11T17:32:03.016Z,18.73
2022-10-11T17:34:29.867Z,19.13
2022-10-11T17:36:56.708Z,18.35
2022-10-11T17:39:25.277Z,18.02
2022-10-11T17:41:52.440Z,18.08
2022-10-11T17:44:19.943Z,19.67
2022-10-11T17:46:47.382Z,18.95
2022-10-11T17:49:14.682Z,17.95
2022-10-11T17:51:42.619Z,18.42
2022-10-11T17:54:12.817Z,19.50
2022-10-11T17:56:41.511Z,19.42
2022-10-11T17:59:15.890Z,18.30
2022-10-11T18:01:43.020Z,20.50
2022-10-11T18:04:16.430Z,19.90
2022-10-11T18:06:45.077Z,19.60
2022-10-11T18:09:13.334Z,19.55
2022-10-11T18:11:40.102Z,19.27
2022-10-11T18:14:07.210Z,20.25
2022-10-11T18:16:35.665Z,19.83
2022-10-11T18:19:05.266Z,19.90
2022-10-11T18:21:34.485Z,19.60
2022-10-11T18:24:03.370Z,19.65
2022-10-11T18:26:30.847Z,18.85
2022-10-11T18:28:58.594Z,20.30
2022-10-11T18:31:27.970Z,20.15
2022-10-11T18:33:55.144Z,20.55
2022-10-11T18:36:24.897Z,20.40
2022-10-11T18:38:57.196Z,21.27
2022-10-11T18:41:30.611Z,20.20
2022-10-11T18:44:05.933Z,21.17
2022-10-11T18:46:33.302Z,21.02
2022-10-11T18:49:01.943Z,21.13
2022-10-11T18:51:31.464Z,22.10
2022-10-11T18:53:58.844Z,21.13
2022-10-11T18:56:27.141Z,21.73
2022-10-11T18:58:56.198Z,20.63
2022-10-11T19:01:53.890Z,21.48
2022-10-11T19:04:20.980Z,20.15
2022-10-11T19:06:49.441Z,20.33
2022-10-11T19:09:21.687Z,21.65
2022-10-11T19:11:50.457Z,21.35
2022-10-11T19:14:19.594Z,21.25
2022-10-11T19:16:51.315Z,21.33
2022-10-11T19:19:24.236Z,21.75
2022-10-11T19:21:51.366Z,19.92
2022-10-11T19:24:20.426Z,20.73
2022-10-11T19:26:47.877Z,21.30
2022-10-11T19:29:20.427Z,19.30
2022-10-11T19:31:50.140Z,20.52
2022-10-11T19:34:17.104Z,21.23
2022-10-11T19:36:44.430Z,20.35
2022-10-11T19:39:15.500Z,21.05
2022-10-11T19:41:43.645Z,22.52
2022-10-11T19:44:12.282Z,22.00
2022-10-11T19:46:54.882Z,22.75
2022-10-11T19:49:24.934Z,21.17
2022-10-11T19:51:53.755Z,22.60
2022-10-11T19:54:20.618Z,22.38
2022-10-11T19:56:48.147Z,23.00
2022-10-11T19:59:15.375Z,23.40
2022-10-11T20:01:46.673Z,25.85
2022-10-11T20:04:39.588Z,23.67
2022-10-11T20:07:03.484Z,23.55
2022-10-11T20:09:31.078Z,22.52
2022-10-11T20:11:58.478Z,24.77
2022-10-11T20:14:25.409Z,25.17
2022-10-11T20:16:52.375Z,23.60
2022-10-11T20:19:20.111Z,23.75
2022-10-11T20:21:47.700Z,23.05
2022-10-11T20:24:14.595Z,24.40
2022-10-11T20:26:41.748Z,25.15
2022-10-11T20:29:08.806Z,25.88
2022-10-11T20:31:40.800Z,25.30
2022-10-11T20:34:08.056Z,25.02
2022-10-11T20:36:36.149Z,26.10
2022-10-11T20:39:05.271Z,25.70
2022-10-11T20:41:39.603Z,27.83
2022-10-11T20:44:07.387Z,27.10
2022-10-11T20:46:37.490Z,25.92
2022-10-11T20:49:10.418Z,26.17
2022-10-11T20:51:38.889Z,27.45
2022-10-11T20:54:06.156Z,28.45
2022-10-11T20:56:33.914Z,27.27
2022-10-11T20:59:01.412Z,28.23
2022-10-11T21:01:34.609Z,27.10
2022-10-11T21:04:02.090Z,27.42
2022-10-11T21:06:29.978Z,27.45
2022-10-11T21:08:59.064Z,26.38
2022-10-11T21:11:31.258Z,27.52
2022-10-11T21:14:03.442Z,30.33
2022-10-11T21:16:30.922Z,26.42
2022-10-11T21:18:59.711Z,29.30
2022-10-11T21:21:28.089Z,28.88
2022-10-11T21:23:56.837Z,29.17
2022-10-11T21:26:24.075Z,28.30
2022-10-11T21:28:51.325Z,30.33
2022-10-11T21:31:19.801Z,28.02
2022-10-11T21:33:46.996Z,32.83
2022-10-11T21:36:19.433Z,29.63
2022-10-11T21:38:46.597Z,29.42
2022-10-11T21:41:16.320Z,30.63
2022-10-11T21:43:43.856Z,30.90
2022-10-11T21:46:22.626Z,30.60
2022-10-11T21:48:50.150Z,30.75
2022-10-11T21:51:22.037Z,30.88
2022-10-11T21:53:48.928Z,29.15
2022-10-11T21:56:16.010Z,30.13
2022-10-11T21:58:42.947Z,30.30
2022-10-11T22:01:11.518Z,29.88
2022-10-11T22:03:38.526Z,29.75
2022-10-11T22:06:05.700Z,30.95
2022-10-11T22:08:33.130Z,30.45
2022-10-11T22:11:02.268Z,29.30
2022-10-11T22:13:33.581Z,30.17
2022-10-11T22:16:05.300Z,30.55
2022-10-11T22:18:33.767Z,29.90
2022-10-11T22:21:08.420Z,29.33
2022-10-11T22:23:35.373Z,30.45
2022-10-11T22:26:07.010Z,29.95
2022-10-11T22:28:34.479Z,30.23
2022-10-11T22:31:01.572Z,30.88
2022-10-11T22:33:28.597Z,32.08
2022-10-11T22:36:00.645Z,31.55
2022-10-11T22:38:28.011Z,31.02
2022-10-11T22:40:57.902Z,31.70
2022-10-11T22:43:24.698Z,32.28
2022-10-11T22:45:51.667Z,29.17
2022-10-11T22:48:18.523Z,30.17
2022-10-11T22:50:45.297Z,29.48
2022-10-11T22:53:13.874Z,30.00
2022-10-11T22:55:40.836Z,30.73
2022-10-11T22:58:07.606Z,32.13
2022-10-11T23:00:34.457Z,31.60
2022-10-11T23:03:01.222Z,32.05
2022-10-11T23:05:28.050Z,32.38
2022-10-11T23:07:54.832Z,30.90
2022-10-11T23:10:21.676Z,31.05
2022-10-11T23:12:48.457Z,31.63
2022-10-11T23:15:15.713Z,32.78
2022-10-11T23:17:42.644Z,31.40
2022-10-11T23:20:10.294Z,31.23
2022-10-11T23:22:37.104Z,33.38
2022-10-11T23:25:04.682Z,33.42
2022-10-11T23:27:31.559Z,32.92
2022-10-11T23:29:58.755Z,34.22
2022-10-11T23:32:25.581Z,31.20
2022-10-11T23:34:52.361Z,34.65
2022-10-11T23:37:19.218Z,30.60
2022-10-11T23:39:46.000Z,31.02
2022-10-11T23:42:13.031Z,31.55
2022-10-11T23:44:40.976Z,31.58
2022-10-11T23:47:07.837Z,34.15
2022-10-11T23:49:34.704Z,31.77
2022-10-11T23:52:01.553Z,33.63
2022-10-11T23:54:28.370Z,34.10
2022-10-11T23:56:55.111Z,32.90
2022-10-11T23:59:22.021Z,32.65
